sensor_id;sensor_type;location;lat;lon;timestamp;P1;durP1;ratioP1;P2;durP2;ratioP2
44145;SDS011;29809;52.432;4.780;2023-04-24T00:02:14;0.40;;;0.32;;
44145;SDS011;29809;52.432;4.780;2023-04-24T00:04:41;0.50;;;0.50;;
44145;SDS011;29809;52.432;4.780;2023-04-24T00:07:06;0.75;;;0.43;;
44145;SDS011;29809;52.432;4.780;2023-04-24T00:09:32;0.30;;;0.30;;
44145;SDS011;29809;52.432;4.780;2023-04-24T00:11:57;0.40;;;0.40;;
44145;SDS011;29809;52.432;4.780;2023-04-24T00:14:22;0.50;;;0.50;;
44145;SDS011;29809;52.432;4.780;2023-04-24T00:16:47;0.28;;;0.28;;
44145;SDS011;29809;52.432;4.780;2023-04-24T00:19:13;0.50;;;0.50;;
44145;SDS011;29809;52.432;4.780;2023-04-24T00:21:38;0.35;;;0.35;;
44145;SDS011;29809;52.432;4.780;2023-04-24T00:24:04;0.40;;;0.40;;
44145;SDS011;29809;52.432;4.780;2023-04-24T00:26:29;0.50;;;0.50;;
44145;SDS011;29809;52.432;4.780;2023-04-24T00:28:54;0.40;;;0.35;;
44145;SDS011;29809;52.432;4.780;2023-04-24T00:31:19;0.95;;;0.40;;
44145;SDS011;29809;52.432;4.780;2023-04-24T00:33:45;0.80;;;0.40;;
44145;SDS011;29809;52.432;4.780;2023-04-24T00:36:10;0.82;;;0.40;;
44145;SDS011;29809;52.432;4.780;2023-04-24T00:38:35;0.30;;;0.30;;
44145;SDS011;29809;52.432;4.780;2023-04-24T00:41:01;0.40;;;0.40;;
44145;SDS011;29809;52.432;4.780;2023-04-24T00:43:26;0.50;;;0.40;;
44145;SDS011;29809;52.432;4.780;2023-04-24T00:45:51;0.85;;;0.50;;
44145;SDS011;29809;52.432;4.780;2023-04-24T00:48:16;0.35;;;0.35;;
44145;SDS011;29809;52.432;4.780;2023-04-24T00:50:42;0.47;;;0.47;;
44145;SDS011;29809;52.432;4.780;2023-04-24T00:53:07;0.40;;;0.40;;
44145;SDS011;29809;52.432;4.780;2023-04-24T00:55:33;0.52;;;0.40;;
44145;SDS011;29809;52.432;4.780;2023-04-24T00:57:58;0.60;;;0.50;;
44145;SDS011;29809;52.432;4.780;2023-04-24T01:00:23;0.43;;;0.40;;
44145;SDS011;29809;52.432;4.780;2023-04-24T01:02:49;0.50;;;0.50;;
44145;SDS011;29809;52.432;4.780;2023-04-24T01:05:14;0.55;;;0.32;;
44145;SDS011;29809;52.432;4.780;2023-04-24T01:07:40;0.50;;;0.50;;
44145;SDS011;29809;52.432;4.780;2023-04-24T01:10:09;0.50;;;0.40;;
44145;SDS011;29809;52.432;4.780;2023-04-24T01:12:34;0.57;;;0.40;;
44145;SDS011;29809;52.432;4.780;2023-04-24T01:14:59;0.30;;;0.30;;
44145;SDS011;29809;52.432;4.780;2023-04-24T01:17:25;0.68;;;0.60;;
44145;SDS011;29809;52.432;4.780;2023-04-24T01:19:50;0.82;;;0.57;;
44145;SDS011;29809;52.432;4.780;2023-04-24T01:22:18;0.85;;;0.43;;
44145;SDS011;29809;52.432;4.780;2023-04-24T01:24:45;0.40;;;0.40;;
44145;SDS011;29809;52.432;4.780;2023-04-24T01:27:10;1.45;;;0.47;;
44145;SDS011;29809;52.432;4.780;2023-04-24T01:29:36;0.50;;;0.50;;
44145;SDS011;29809;52.432;4.780;2023-04-24T01:32:02;0.30;;;0.30;;
44145;SDS011;29809;52.432;4.780;2023-04-24T01:34:27;0.90;;;0.50;;
44145;SDS011;29809;52.432;4.780;2023-04-24T01:36:53;0.60;;;0.50;;
44145;SDS011;29809;52.432;4.780;2023-04-24T01:39:18;0.50;;;0.50;;
44145;SDS011;29809;52.432;4.780;2023-04-24T01:41:45;1.40;;;0.60;;
44145;SDS011;29809;52.432;4.780;2023-04-24T01:44:10;1.92;;;0.73;;
44145;SDS011;29809;52.432;4.780;2023-04-24T01:46:36;1.50;;;0.60;;
44145;SDS011;29809;52.432;4.780;2023-04-24T01:49:01;0.98;;;0.50;;
44145;SDS011;29809;52.432;4.780;2023-04-24T01:51:27;2.47;;;0.40;;
44145;SDS011;29809;52.432;4.780;2023-04-24T01:53:52;4.07;;;0.55;;
44145;SDS011;29809;52.432;4.780;2023-04-24T01:56:19;1.23;;;0.45;;
44145;SDS011;29809;52.432;4.780;2023-04-24T01:58:45;0.93;;;0.50;;
44145;SDS011;29809;52.432;4.780;2023-04-24T02:01:14;1.30;;;0.50;;
44145;SDS011;29809;52.432;4.780;2023-04-24T02:03:40;0.80;;;0.52;;
44145;SDS011;29809;52.432;4.780;2023-04-24T02:06:05;1.17;;;0.80;;
44145;SDS011;29809;52.432;4.780;2023-04-24T02:08:30;1.30;;;0.43;;
44145;SDS011;29809;52.432;4.780;2023-04-24T02:10:55;1.80;;;0.55;;
44145;SDS011;29809;52.432;4.780;2023-04-24T02:13:21;0.77;;;0.40;;
44145;SDS011;29809;52.432;4.780;2023-04-24T02:15:47;1.42;;;0.57;;
44145;SDS011;29809;52.432;4.780;2023-04-24T02:18:12;0.98;;;0.45;;
44145;SDS011;29809;52.432;4.780;2023-04-24T02:20:37;2.15;;;0.80;;
44145;SDS011;29809;52.432;4.780;2023-04-24T02:23:03;0.98;;;0.50;;
44145;SDS011;29809;52.432;4.780;2023-04-24T02:25:28;0.77;;;0.43;;
44145;SDS011;29809;52.432;4.780;2023-04-24T02:27:53;0.85;;;0.40;;
44145;SDS011;29809;52.432;4.780;2023-04-24T02:30:18;1.35;;;0.50;;
44145;SDS011;29809;52.432;4.780;2023-04-24T02:32:44;1.05;;;0.60;;
44145;SDS011;29809;52.432;4.780;2023-04-24T02:35:10;2.08;;;0.38;;
44145;SDS011;29809;52.432;4.780;2023-04-24T02:37:35;1.05;;;0.22;;
44145;SDS011;29809;52.432;4.780;2023-04-24T02:40:00;1.42;;;0.60;;
44145;SDS011;29809;52.432;4.780;2023-04-24T02:42:26;2.72;;;0.80;;
44145;SDS011;29809;52.432;4.780;2023-04-24T02:44:51;1.17;;;0.60;;
44145;SDS011;29809;52.432;4.780;2023-04-24T02:47:16;0.75;;;0.40;;
44145;SDS011;29809;52.432;4.780;2023-04-24T02:49:41;1.33;;;0.43;;
44145;SDS011;29809;52.432;4.780;2023-04-24T02:52:07;1.10;;;0.40;;
44145;SDS011;29809;52.432;4.780;2023-04-24T02:54:32;1.08;;;0.60;;
44145;SDS011;29809;52.432;4.780;2023-04-24T02:56:57;1.30;;;0.32;;
44145;SDS011;29809;52.432;4.780;2023-04-24T02:59:22;0.88;;;0.50;;
44145;SDS011;29809;52.432;4.780;2023-04-24T03:01:48;1.10;;;0.65;;
44145;SDS011;29809;52.432;4.780;2023-04-24T03:04:13;2.35;;;0.40;;
44145;SDS011;29809;52.432;4.780;2023-04-24T03:06:38;1.38;;;0.85;;
44145;SDS011;29809;52.432;4.780;2023-04-24T03:09:03;0.50;;;0.50;;
44145;SDS011;29809;52.432;4.780;2023-04-24T03:11:29;1.17;;;0.40;;
44145;SDS011;29809;52.432;4.780;2023-04-24T03:13:54;0.75;;;0.38;;
44145;SDS011;29809;52.432;4.780;2023-04-24T03:16:20;0.38;;;0.30;;
44145;SDS011;29809;52.432;4.780;2023-04-24T03:18:45;1.05;;;0.60;;
44145;SDS011;29809;52.432;4.780;2023-04-24T03:21:11;1.15;;;0.45;;
44145;SDS011;29809;52.432;4.780;2023-04-24T03:23:36;0.85;;;0.25;;
44145;SDS011;29809;52.432;4.780;2023-04-24T03:26:01;0.40;;;0.40;;
44145;SDS011;29809;52.432;4.780;2023-04-24T03:28:27;1.00;;;0.30;;
44145;SDS011;29809;52.432;4.780;2023-04-24T03:30:52;1.10;;;0.38;;
44145;SDS011;29809;52.432;4.780;2023-04-24T03:33:17;1.20;;;0.70;;
44145;SDS011;29809;52.432;4.780;2023-04-24T03:35:43;0.55;;;0.50;;
44145;SDS011;29809;52.432;4.780;2023-04-24T03:38:08;0.22;;;0.20;;
44145;SDS011;29809;52.432;4.780;2023-04-24T03:40:33;0.30;;;0.30;;
44145;SDS011;29809;52.432;4.780;2023-04-24T03:42:58;0.50;;;0.40;;
44145;SDS011;29809;52.432;4.780;2023-04-24T03:45:24;0.30;;;0.30;;
44145;SDS011;29809;52.432;4.780;2023-04-24T03:47:49;0.20;;;0.20;;
44145;SDS011;29809;52.432;4.780;2023-04-24T03:50:15;0.38;;;0.38;;
44145;SDS011;29809;52.432;4.780;2023-04-24T03:52:40;0.60;;;0.52;;
44145;SDS011;29809;52.432;4.780;2023-04-24T03:55:05;1.65;;;0.50;;
44145;SDS011;29809;52.432;4.780;2023-04-24T03:57:31;0.40;;;0.40;;
44145;SDS011;29809;52.432;4.780;2023-04-24T03:59:56;1.02;;;0.43;;
44145;SDS011;29809;52.432;4.780;2023-04-24T04:02:21;0.75;;;0.40;;
44145;SDS011;29809;52.432;4.780;2023-04-24T04:04:47;0.20;;;0.20;;
44145;SDS011;29809;52.432;4.780;2023-04-24T04:07:12;1.38;;;0.40;;
44145;SDS011;29809;52.432;4.780;2023-04-24T04:09:38;0.63;;;0.50;;
44145;SDS011;29809;52.432;4.780;2023-04-24T04:12:03;2.17;;;0.32;;
44145;SDS011;29809;52.432;4.780;2023-04-24T04:14:28;0.47;;;0.30;;
44145;SDS011;29809;52.432;4.780;2023-04-24T04:16:53;1.20;;;0.60;;
44145;SDS011;29809;52.432;4.780;2023-04-24T04:19:19;0.30;;;0.30;;
44145;SDS011;29809;52.432;4.780;2023-04-24T04:21:44;0.60;;;0.50;;
44145;SDS011;29809;52.432;4.780;2023-04-24T04:24:10;1.08;;;0.70;;
44145;SDS011;29809;52.432;4.780;2023-04-24T04:26:36;1.10;;;0.47;;
44145;SDS011;29809;52.432;4.780;2023-04-24T04:29:02;1.02;;;0.40;;
44145;SDS011;29809;52.432;4.780;2023-04-24T04:31:28;0.95;;;0.50;;
44145;SDS011;29809;52.432;4.780;2023-04-24T04:33:54;0.50;;;0.30;;
44145;SDS011;29809;52.432;4.780;2023-04-24T04:36:20;0.73;;;0.50;;
44145;SDS011;29809;52.432;4.780;2023-04-24T04:38:48;0.90;;;0.50;;
44145;SDS011;29809;52.432;4.780;2023-04-24T04:41:14;0.55;;;0.40;;
44145;SDS011;29809;52.432;4.780;2023-04-24T04:43:41;0.35;;;0.35;;
44145;SDS011;29809;52.432;4.780;2023-04-24T04:46:07;0.70;;;0.30;;
44145;SDS011;29809;52.432;4.780;2023-04-24T04:48:35;3.58;;;0.57;;
44145;SDS011;29809;52.432;4.780;2023-04-24T04:51:00;0.30;;;0.30;;
44145;SDS011;29809;52.432;4.780;2023-04-24T04:53:26;0.40;;;0.40;;
44145;SDS011;29809;52.432;4.780;2023-04-24T04:55:51;0.47;;;0.40;;
44145;SDS011;29809;52.432;4.780;2023-04-24T04:58:17;2.95;;;0.60;;
44145;SDS011;29809;52.432;4.780;2023-04-24T05:00:42;0.50;;;0.40;;
44145;SDS011;29809;52.432;4.780;2023-04-24T05:03:07;0.47;;;0.30;;
44145;SDS011;29809;52.432;4.780;2023-04-24T05:05:32;2.35;;;0.75;;
44145;SDS011;29809;52.432;4.780;2023-04-24T05:07:58;0.35;;;0.35;;
44145;SDS011;29809;52.432;4.780;2023-04-24T05:10:23;2.17;;;0.60;;
44145;SDS011;29809;52.432;4.780;2023-04-24T05:12:48;1.38;;;0.73;;
44145;SDS011;29809;52.432;4.780;2023-04-24T05:15:14;1.35;;;0.88;;
44145;SDS011;29809;52.432;4.780;2023-04-24T05:17:39;1.10;;;0.90;;
44145;SDS011;29809;52.432;4.780;2023-04-24T05:20:05;13.23;;;1.20;;
44145;SDS011;29809;52.432;4.780;2023-04-24T05:22:31;1.73;;;1.42;;
44145;SDS011;29809;52.432;4.780;2023-04-24T05:24:56;2.50;;;2.13;;
44145;SDS011;29809;52.432;4.780;2023-04-24T05:27:22;2.80;;;2.20;;
44145;SDS011;29809;52.432;4.780;2023-04-24T05:29:47;3.42;;;2.60;;
44145;SDS011;29809;52.432;4.780;2023-04-24T05:32:12;3.35;;;2.90;;
44145;SDS011;29809;52.432;4.780;2023-04-24T05:34:38;3.40;;;2.78;;
44145;SDS011;29809;52.432;4.780;2023-04-24T05:37:03;5.25;;;3.22;;
44145;SDS011;29809;52.432;4.780;2023-04-24T05:39:33;4.25;;;3.20;;
44145;SDS011;29809;52.432;4.780;2023-04-24T05:41:58;4.93;;;3.28;;
44145;SDS011;29809;52.432;4.780;2023-04-24T05:44:23;4.22;;;3.70;;
44145;SDS011;29809;52.432;4.780;2023-04-24T05:46:48;4.53;;;2.63;;
44145;SDS011;29809;52.432;4.780;2023-04-24T05:49:14;3.72;;;3.15;;
44145;SDS011;29809;52.432;4.780;2023-04-24T05:51:39;4.10;;;2.95;;
44145;SDS011;29809;52.432;4.780;2023-04-24T05:54:04;6.93;;;3.33;;
44145;SDS011;29809;52.432;4.780;2023-04-24T05:56:30;3.58;;;2.78;;
44145;SDS011;29809;52.432;4.780;2023-04-24T05:58:55;2.83;;;2.42;;
44145;SDS011;29809;52.432;4.780;2023-04-24T06:01:20;5.07;;;2.78;;
44145;SDS011;29809;52.432;4.780;2023-04-24T06:03:46;5.07;;;3.08;;
44145;SDS011;29809;52.432;4.780;2023-04-24T06:06:11;7.63;;;3.10;;
44145;SDS011;29809;52.432;4.780;2023-04-24T06:08:37;4.43;;;2.67;;
44145;SDS011;29809;52.432;4.780;2023-04-24T06:11:02;6.40;;;3.03;;
44145;SDS011;29809;52.432;4.780;2023-04-24T06:13:27;6.70;;;3.05;;
44145;SDS011;29809;52.432;4.780;2023-04-24T06:15:52;5.10;;;2.65;;
44145;SDS011;29809;52.432;4.780;2023-04-24T06:18:18;6.10;;;3.60;;
44145;SDS011;29809;52.432;4.780;2023-04-24T06:20:43;4.28;;;2.75;;
44145;SDS011;29809;52.432;4.780;2023-04-24T06:23:08;6.10;;;2.88;;
44145;SDS011;29809;52.432;4.780;2023-04-24T06:25:33;5.55;;;2.95;;
44145;SDS011;29809;52.432;4.780;2023-04-24T06:27:59;5.43;;;3.00;;
44145;SDS011;29809;52.432;4.780;2023-04-24T06:30:24;7.72;;;2.92;;
44145;SDS011;29809;52.432;4.780;2023-04-24T06:32:50;3.92;;;2.55;;
44145;SDS011;29809;52.432;4.780;2023-04-24T06:35:15;29.88;;;9.10;;
44145;SDS011;29809;52.432;4.780;2023-04-24T06:37:41;39.28;;;14.48;;
44145;SDS011;29809;52.432;4.780;2023-04-24T06:40:06;58.13;;;18.85;;
44145;SDS011;29809;52.432;4.780;2023-04-24T06:42:31;48.35;;;16.17;;
44145;SDS011;29809;52.432;4.780;2023-04-24T06:44:57;41.80;;;15.80;;
44145;SDS011;29809;52.432;4.780;2023-04-24T06:47:22;31.77;;;13.27;;
44145;SDS011;29809;52.432;4.780;2023-04-24T06:49:47;35.70;;;13.30;;
44145;SDS011;29809;52.432;4.780;2023-04-24T06:52:13;26.25;;;10.85;;
44145;SDS011;29809;52.432;4.780;2023-04-24T06:54:38;26.48;;;11.02;;
44145;SDS011;29809;52.432;4.780;2023-04-24T06:57:03;27.40;;;9.85;;
44145;SDS011;29809;52.432;4.780;2023-04-24T06:59:29;19.92;;;8.02;;
44145;SDS011;29809;52.432;4.780;2023-04-24T07:01:54;23.67;;;8.30;;
44145;SDS011;29809;52.432;4.780;2023-04-24T07:04:20;21.15;;;7.50;;
44145;SDS011;29809;52.432;4.780;2023-04-24T07:06:45;16.33;;;7.18;;
44145;SDS011;29809;52.432;4.780;2023-04-24T07:09:11;18.35;;;7.18;;
44145;SDS011;29809;52.432;4.780;2023-04-24T07:11:36;16.73;;;5.68;;
44145;SDS011;29809;52.432;4.780;2023-04-24T07:14:03;13.38;;;5.43;;
44145;SDS011;29809;52.432;4.780;2023-04-24T07:16:28;16.30;;;6.03;;
44145;SDS011;29809;52.432;4.780;2023-04-24T07:18:55;16.95;;;6.07;;
44145;SDS011;29809;52.432;4.780;2023-04-24T07:21:20;16.40;;;5.05;;
44145;SDS011;29809;52.432;4.780;2023-04-24T07:23:48;13.50;;;5.35;;
44145;SDS011;29809;52.432;4.780;2023-04-24T07:26:14;12.10;;;4.28;;
44145;SDS011;29809;52.432;4.780;2023-04-24T07:28:40;8.70;;;3.90;;
44145;SDS011;29809;52.432;4.780;2023-04-24T07:31:06;12.90;;;4.80;;
44145;SDS011;29809;52.432;4.780;2023-04-24T07:33:31;8.75;;;3.70;;
44145;SDS011;29809;52.432;4.780;2023-04-24T07:35:57;10.65;;;4.45;;
44145;SDS011;29809;52.432;4.780;2023-04-24T07:38:22;11.02;;;3.88;;
44145;SDS011;29809;52.432;4.780;2023-04-24T07:40:48;11.50;;;4.47;;
44145;SDS011;29809;52.432;4.780;2023-04-24T07:43:13;9.63;;;3.70;;
44145;SDS011;29809;52.432;4.780;2023-04-24T07:45:38;11.77;;;3.83;;
44145;SDS011;29809;52.432;4.780;2023-04-24T07:48:04;6.15;;;3.30;;
44145;SDS011;29809;52.432;4.780;2023-04-24T07:50:30;8.07;;;3.53;;
44145;SDS011;29809;52.432;4.780;2023-04-24T07:52:55;6.50;;;3.08;;
44145;SDS011;29809;52.432;4.780;2023-04-24T07:55:20;6.75;;;3.53;;
44145;SDS011;29809;52.432;4.780;2023-04-24T07:57:46;6.68;;;2.70;;
44145;SDS011;29809;52.432;4.780;2023-04-24T08:00:11;7.82;;;2.88;;
44145;SDS011;29809;52.432;4.780;2023-04-24T08:02:36;7.55;;;3.00;;
44145;SDS011;29809;52.432;4.780;2023-04-24T08:05:02;7.25;;;2.67;;
44145;SDS011;29809;52.432;4.780;2023-04-24T08:07:28;4.05;;;2.58;;
44145;SDS011;29809;52.432;4.780;2023-04-24T08:09:53;4.85;;;2.30;;
44145;SDS011;29809;52.432;4.780;2023-04-24T08:12:19;6.30;;;2.95;;
44145;SDS011;29809;52.432;4.780;2023-04-24T08:14:44;7.05;;;2.20;;
44145;SDS011;29809;52.432;4.780;2023-04-24T08:17:10;4.57;;;2.42;;
44145;SDS011;29809;52.432;4.780;2023-04-24T08:19:35;5.10;;;2.10;;
44145;SDS011;29809;52.432;4.780;2023-04-24T08:22:01;5.07;;;2.38;;
44145;SDS011;29809;52.432;4.780;2023-04-24T08:24:26;6.57;;;2.53;;
44145;SDS011;29809;52.432;4.780;2023-04-24T08:26:51;4.75;;;2.10;;
44145;SDS011;29809;52.432;4.780;2023-04-24T08:29:19;6.20;;;2.42;;
44145;SDS011;29809;52.432;4.780;2023-04-24T08:31:44;5.28;;;2.00;;
44145;SDS011;29809;52.432;4.780;2023-04-24T08:34:09;3.47;;;1.95;;
44145;SDS011;29809;52.432;4.780;2023-04-24T08:36:35;5.28;;;1.73;;
44145;SDS011;29809;52.432;4.780;2023-04-24T08:39:00;8.57;;;2.13;;
44145;SDS011;29809;52.432;4.780;2023-04-24T08:41:27;5.50;;;2.30;;
44145;SDS011;29809;52.432;4.780;2023-04-24T08:43:52;6.22;;;2.20;;
44145;SDS011;29809;52.432;4.780;2023-04-24T08:46:18;3.22;;;1.58;;
44145;SDS011;29809;52.432;4.780;2023-04-24T08:48:44;5.45;;;1.90;;
44145;SDS011;29809;52.432;4.780;2023-04-24T08:51:10;4.05;;;1.75;;
44145;SDS011;29809;52.432;4.780;2023-04-24T08:53:35;3.50;;;2.15;;
44145;SDS011;29809;52.432;4.780;2023-04-24T08:56:01;5.72;;;2.35;;
44145;SDS011;29809;52.432;4.780;2023-04-24T08:58:27;4.07;;;2.20;;
44145;SDS011;29809;52.432;4.780;2023-04-24T09:00:55;6.68;;;2.33;;
44145;SDS011;29809;52.432;4.780;2023-04-24T09:03:20;3.03;;;2.13;;
44145;SDS011;29809;52.432;4.780;2023-04-24T09:05:47;4.90;;;2.25;;
44145;SDS011;29809;52.432;4.780;2023-04-24T09:08:13;7.13;;;1.88;;
44145;SDS011;29809;52.432;4.780;2023-04-24T09:10:38;4.78;;;2.50;;
44145;SDS011;29809;52.432;4.780;2023-04-24T09:13:04;4.57;;;2.40;;
44145;SDS011;29809;52.432;4.780;2023-04-24T09:15:30;5.22;;;2.05;;
44145;SDS011;29809;52.432;4.780;2023-04-24T09:17:55;4.35;;;2.15;;
44145;SDS011;29809;52.432;4.780;2023-04-24T09:20:21;6.47;;;2.10;;
44145;SDS011;29809;52.432;4.780;2023-04-24T09:22:46;4.72;;;2.63;;
44145;SDS011;29809;52.432;4.780;2023-04-24T09:25:12;5.32;;;2.40;;
44145;SDS011;29809;52.432;4.780;2023-04-24T09:27:41;5.22;;;2.33;;
44145;SDS011;29809;52.432;4.780;2023-04-24T09:30:06;3.80;;;1.83;;
44145;SDS011;29809;52.432;4.780;2023-04-24T09:32:33;7.05;;;2.20;;
44145;SDS011;29809;52.432;4.780;2023-04-24T09:35:05;3.85;;;1.65;;
44145;SDS011;29809;52.432;4.780;2023-04-24T09:37:34;6.32;;;1.83;;
44145;SDS011;29809;52.432;4.780;2023-04-24T09:40:18;5.28;;;1.60;;
44145;SDS011;29809;52.432;4.780;2023-04-24T09:42:45;2.97;;;1.60;;
44145;SDS011;29809;52.432;4.780;2023-04-24T09:45:10;7.32;;;2.35;;
44145;SDS011;29809;52.432;4.780;2023-04-24T09:47:39;4.00;;;1.40;;
44145;SDS011;29809;52.432;4.780;2023-04-24T09:50:10;2.63;;;1.73;;
44145;SDS011;29809;52.432;4.780;2023-04-24T09:52:35;4.20;;;2.15;;
44145;SDS011;29809;52.432;4.780;2023-04-24T09:55:00;4.65;;;2.20;;
44145;SDS011;29809;52.432;4.780;2023-04-24T09:57:26;2.97;;;1.52;;
44145;SDS011;29809;52.432;4.780;2023-04-24T09:59:54;2.63;;;1.30;;
44145;SDS011;29809;52.432;4.780;2023-04-24T10:02:20;3.55;;;1.25;;
44145;SDS011;29809;52.432;4.780;2023-04-24T10:04:55;3.80;;;1.40;;
44145;SDS011;29809;52.432;4.780;2023-04-24T10:07:28;3.38;;;1.25;;
44145;SDS011;29809;52.432;4.780;2023-04-24T10:09:53;6.05;;;1.60;;
44145;SDS011;29809;52.432;4.780;2023-04-24T10:12:19;2.35;;;1.23;;
44145;SDS011;29809;52.432;4.780;2023-04-24T10:14:45;3.30;;;1.20;;
44145;SDS011;29809;52.432;4.780;2023-04-24T10:17:11;2.42;;;1.00;;
44145;SDS011;29809;52.432;4.780;2023-04-24T10:19:36;2.25;;;1.15;;
44145;SDS011;29809;52.432;4.780;2023-04-24T10:22:02;2.88;;;1.10;;
44145;SDS011;29809;52.432;4.780;2023-04-24T10:24:29;2.97;;;1.23;;
44145;SDS011;29809;52.432;4.780;2023-04-24T10:26:54;3.95;;;1.15;;
44145;SDS011;29809;52.432;4.780;2023-04-24T10:29:21;3.00;;;1.00;;
44145;SDS011;29809;52.432;4.780;2023-04-24T10:31:47;2.00;;;0.77;;
44145;SDS011;29809;52.432;4.780;2023-04-24T10:34:13;4.00;;;1.73;;
44145;SDS011;29809;52.432;4.780;2023-04-24T10:36:40;3.45;;;1.70;;
44145;SDS011;29809;52.432;4.780;2023-04-24T10:39:07;1.75;;;0.80;;
44145;SDS011;29809;52.432;4.780;2023-04-24T10:41:33;6.05;;;1.10;;
44145;SDS011;29809;52.432;4.780;2023-04-24T10:44:04;2.30;;;1.23;;
44145;SDS011;29809;52.432;4.780;2023-04-24T10:46:30;2.50;;;1.20;;
44145;SDS011;29809;52.432;4.780;2023-04-24T10:48:56;1.75;;;0.95;;
44145;SDS011;29809;52.432;4.780;2023-04-24T10:51:21;3.63;;;1.17;;
44145;SDS011;29809;52.432;4.780;2023-04-24T10:53:47;2.85;;;1.30;;
44145;SDS011;29809;52.432;4.780;2023-04-24T10:56:15;2.28;;;1.00;;
44145;SDS011;29809;52.432;4.780;2023-04-24T10:58:41;1.95;;;1.02;;
44145;SDS011;29809;52.432;4.780;2023-04-24T11:01:10;3.35;;;1.05;;
44145;SDS011;29809;52.432;4.780;2023-04-24T11:03:51;3.25;;;1.10;;
44145;SDS011;29809;52.432;4.780;2023-04-24T11:06:18;2.38;;;0.90;;
44145;SDS011;29809;52.432;4.780;2023-04-24T11:08:58;2.72;;;1.00;;
44145;SDS011;29809;52.432;4.780;2023-04-24T11:11:28;4.70;;;1.38;;
44145;SDS011;29809;52.432;4.780;2023-04-24T11:19:09;1.52;;;0.85;;
44145;SDS011;29809;52.432;4.780;2023-04-24T11:21:39;2.33;;;1.02;;
44145;SDS011;29809;52.432;4.780;2023-04-24T11:29:44;2.50;;;0.90;;
44145;SDS011;29809;52.432;4.780;2023-04-24T11:32:26;3.42;;;1.23;;
44145;SDS011;29809;52.432;4.780;2023-04-24T11:34:56;2.65;;;1.10;;
44145;SDS011;29809;52.432;4.780;2023-04-24T11:37:29;5.20;;;1.50;;
44145;SDS011;29809;52.432;4.780;2023-04-24T11:39:55;2.28;;;1.20;;
44145;SDS011;29809;52.432;4.780;2023-04-24T11:42:23;4.15;;;1.40;;
44145;SDS011;29809;52.432;4.780;2023-04-24T11:44:51;3.13;;;1.23;;
44145;SDS011;29809;52.432;4.780;2023-04-24T11:47:17;5.07;;;1.50;;
44145;SDS011;29809;52.432;4.780;2023-04-24T11:49:42;3.03;;;1.25;;
44145;SDS011;29809;52.432;4.780;2023-04-24T11:52:08;5.20;;;1.50;;
44145;SDS011;29809;52.432;4.780;2023-04-24T11:54:33;5.53;;;1.60;;
44145;SDS011;29809;52.432;4.780;2023-04-24T11:56:58;3.45;;;1.38;;
44145;SDS011;29809;52.432;4.780;2023-04-24T11:59:24;3.90;;;1.92;;
44145;SDS011;29809;52.432;4.780;2023-04-24T12:01:50;4.45;;;1.58;;
44145;SDS011;29809;52.432;4.780;2023-04-24T12:04:16;5.32;;;1.67;;
44145;SDS011;29809;52.432;4.780;2023-04-24T12:07:02;3.97;;;1.73;;
44145;SDS011;29809;52.432;4.780;2023-04-24T12:09:27;6.32;;;2.05;;
44145;SDS011;29809;52.432;4.780;2023-04-24T12:11:53;4.38;;;1.38;;
44145;SDS011;29809;52.432;4.780;2023-04-24T12:14:18;3.70;;;1.40;;
44145;SDS011;29809;52.432;4.780;2023-04-24T12:16:47;2.28;;;1.45;;
44145;SDS011;29809;52.432;4.780;2023-04-24T12:19:17;4.95;;;2.15;;
44145;SDS011;29809;52.432;4.780;2023-04-24T12:21:42;5.18;;;1.88;;
44145;SDS011;29809;52.432;4.780;2023-04-24T12:24:07;3.45;;;1.45;;
44145;SDS011;29809;52.432;4.780;2023-04-24T12:26:32;5.45;;;1.83;;
44145;SDS011;29809;52.432;4.780;2023-04-24T12:29:01;6.38;;;1.85;;
44145;SDS011;29809;52.432;4.780;2023-04-24T12:31:26;3.92;;;2.00;;
44145;SDS011;29809;52.432;4.780;2023-04-24T12:33:54;7.80;;;2.15;;
44145;SDS011;29809;52.432;4.780;2023-04-24T12:36:20;7.35;;;2.22;;
44145;SDS011;29809;52.432;4.780;2023-04-24T12:38:46;7.70;;;2.25;;
44145;SDS011;29809;52.432;4.780;2023-04-24T12:41:12;5.97;;;2.60;;
44145;SDS011;29809;52.432;4.780;2023-04-24T12:43:38;5.35;;;1.95;;
44145;SDS011;29809;52.432;4.780;2023-04-24T12:46:04;5.45;;;2.30;;
44145;SDS011;29809;52.432;4.780;2023-04-24T12:48:29;7.57;;;1.90;;
44145;SDS011;29809;52.432;4.780;2023-04-24T12:50:58;5.70;;;1.95;;
44145;SDS011;29809;52.432;4.780;2023-04-24T12:53:26;6.38;;;2.17;;
44145;SDS011;29809;52.432;4.780;2023-04-24T12:55:52;8.50;;;2.65;;
44145;SDS011;29809;52.432;4.780;2023-04-24T12:58:21;5.15;;;2.75;;
44145;SDS011;29809;52.432;4.780;2023-04-24T13:00:46;7.85;;;2.53;;
44145;SDS011;29809;52.432;4.780;2023-04-24T13:03:12;5.05;;;2.70;;
44145;SDS011;29809;52.432;4.780;2023-04-24T13:05:37;6.47;;;2.35;;
44145;SDS011;29809;52.432;4.780;2023-04-24T13:08:02;7.80;;;3.13;;
44145;SDS011;29809;52.432;4.780;2023-04-24T13:10:27;6.45;;;2.63;;
44145;SDS011;29809;52.432;4.780;2023-04-24T13:12:53;6.15;;;1.92;;
44145;SDS011;29809;52.432;4.780;2023-04-24T13:15:18;5.68;;;2.30;;
44145;SDS011;29809;52.432;4.780;2023-04-24T13:17:43;5.88;;;1.95;;
44145;SDS011;29809;52.432;4.780;2023-04-24T13:20:08;6.30;;;2.38;;
44145;SDS011;29809;52.432;4.780;2023-04-24T13:22:34;8.00;;;2.53;;
44145;SDS011;29809;52.432;4.780;2023-04-24T13:24:59;8.02;;;2.60;;
44145;SDS011;29809;52.432;4.780;2023-04-24T13:27:26;6.10;;;2.22;;
44145;SDS011;29809;52.432;4.780;2023-04-24T13:29:51;5.80;;;2.30;;
44145;SDS011;29809;52.432;4.780;2023-04-24T13:32:16;5.80;;;2.53;;
44145;SDS011;29809;52.432;4.780;2023-04-24T13:34:42;6.00;;;2.50;;
44145;SDS011;29809;52.432;4.780;2023-04-24T13:37:07;8.48;;;2.15;;
44145;SDS011;29809;52.432;4.780;2023-04-24T13:39:33;3.63;;;1.75;;
44145;SDS011;29809;52.432;4.780;2023-04-24T13:41:58;6.35;;;2.10;;
44145;SDS011;29809;52.432;4.780;2023-04-24T13:44:23;6.63;;;1.90;;
44145;SDS011;29809;52.432;4.780;2023-04-24T13:46:50;5.15;;;2.20;;
44145;SDS011;29809;52.432;4.780;2023-04-24T13:49:17;3.72;;;2.00;;
44145;SDS011;29809;52.432;4.780;2023-04-24T13:51:42;7.63;;;2.17;;
44145;SDS011;29809;52.432;4.780;2023-04-24T13:54:07;9.35;;;2.28;;
44145;SDS011;29809;52.432;4.780;2023-04-24T13:56:33;4.25;;;1.67;;
44145;SDS011;29809;52.432;4.780;2023-04-24T13:58:58;2.10;;;1.52;;
44145;SDS011;29809;52.432;4.780;2023-04-24T14:01:23;3.45;;;2.10;;
44145;SDS011;29809;52.432;4.780;2023-04-24T14:03:54;4.18;;;1.90;;
44145;SDS011;29809;52.432;4.780;2023-04-24T14:06:20;6.28;;;2.10;;
44145;SDS011;29809;52.432;4.780;2023-04-24T14:08:45;8.13;;;2.70;;
44145;SDS011;29809;52.432;4.780;2023-04-24T14:11:11;6.30;;;2.33;;
44145;SDS011;29809;52.432;4.780;2023-04-24T14:13:36;5.30;;;2.40;;
44145;SDS011;29809;52.432;4.780;2023-04-24T14:16:02;4.85;;;2.10;;
44145;SDS011;29809;52.432;4.780;2023-04-24T14:18:28;5.78;;;2.42;;
44145;SDS011;29809;52.432;4.780;2023-04-24T14:20:53;6.32;;;2.30;;
44145;SDS011;29809;52.432;4.780;2023-04-24T14:23:19;8.45;;;2.50;;
44145;SDS011;29809;52.432;4.780;2023-04-24T14:25:44;8.10;;;3.03;;
44145;SDS011;29809;52.432;4.780;2023-04-24T14:28:10;5.10;;;2.50;;
44145;SDS011;29809;52.432;4.780;2023-04-24T14:30:36;9.63;;;3.08;;
44145;SDS011;29809;52.432;4.780;2023-04-24T14:33:02;9.68;;;2.60;;
44145;SDS011;29809;52.432;4.780;2023-04-24T14:35:27;7.78;;;2.60;;
44145;SDS011;29809;52.432;4.780;2023-04-24T14:37:54;8.98;;;2.53;;
44145;SDS011;29809;52.432;4.780;2023-04-24T14:40:19;7.57;;;2.20;;
44145;SDS011;29809;52.432;4.780;2023-04-24T14:42:45;6.28;;;2.67;;
44145;SDS011;29809;52.432;4.780;2023-04-24T14:45:10;8.30;;;2.60;;
44145;SDS011;29809;52.432;4.780;2023-04-24T14:47:36;4.97;;;2.63;;
44145;SDS011;29809;52.432;4.780;2023-04-24T14:50:01;8.23;;;3.17;;